createdAt,value
2023-05-03T00:02:17.429Z,101353.88
2023-05-03T00:04:46.542Z,101355.75
2023-05-03T00:07:14.522Z,101356.78
2023-05-03T00:09:42.328Z,101356.00
2023-05-03T00:12:10.038Z,101362.28
2023-05-03T00:14:37.748Z,101360.59
2023-05-03T00:17:05.771Z,101365.19
2023-05-03T00:19:34.135Z,101363.50
2023-05-03T00:22:01.922Z,101364.59
2023-05-03T00:24:29.681Z,101361.91
2023-05-03T00:26:57.462Z,101358.59
2023-05-03T00:29:25.900Z,101362.00
2023-05-03T00:31:53.646Z,101356.75
2023-05-03T00:34:21.357Z,101361.25
2023-05-03T00:36:49.132Z,101361.41
2023-05-03T00:39:16.829Z,101359.63
2023-05-03T00:41:44.585Z,101362.38
2023-05-03T00:44:12.329Z,101363.28
2023-05-03T00:46:40.548Z,101345.81
2023-05-03T00:49:08.313Z,101356.28
2023-05-03T00:51:36.600Z,101362.66
2023-05-03T00:54:04.818Z,101361.00
2023-05-03T00:56:44.305Z,101361.00
2023-05-03T00:59:16.088Z,101367.31
2023-05-03T01:01:44.508Z,101350.53
2023-05-03T01:04:12.360Z,101343.59
2023-05-03T01:06:48.999Z,101356.84
2023-05-03T01:09:43.134Z,101352.50
2023-05-03T01:12:49.126Z,101341.41
2023-05-03T01:15:53.127Z,101344.28
2023-05-03T01:18:26.923Z,101322.25
2023-05-03T01:20:57.512Z,101332.94
2023-05-03T01:23:51.954Z,101341.69
2023-05-03T01:26:27.877Z,101339.09
2023-05-03T01:28:56.203Z,101340.09
2023-05-03T01:31:46.173Z,101337.59
2023-05-03T01:34:16.935Z,101335.06
2023-05-03T01:36:46.040Z,101337.00
2023-05-03T01:39:24.708Z,101322.97
2023-05-03T01:41:53.405Z,101325.75
2023-05-03T01:44:22.858Z,101319.50
2023-05-03T01:46:50.798Z,101309.09
2023-05-03T01:49:18.540Z,101323.13
2023-05-03T01:51:46.278Z,101311.19
2023-05-03T01:54:14.083Z,101322.66
2023-05-03T01:56:41.919Z,101318.34
2023-05-03T01:59:09.696Z,101318.47
2023-05-03T02:01:37.617Z,101319.53
2023-05-03T02:04:05.536Z,101322.34
2023-05-03T02:06:33.620Z,101322.59
2023-05-03T02:09:01.501Z,101325.41
2023-05-03T02:11:29.275Z,101321.34
2023-05-03T02:13:57.019Z,101310.91
2023-05-03T02:16:24.829Z,101320.00
2023-05-03T02:18:53.841Z,101325.28
2023-05-03T02:21:21.588Z,101324.41
2023-05-03T02:23:49.320Z,101314.06
2023-05-03T02:26:17.255Z,101332.56
2023-05-03T02:28:44.999Z,101333.56
2023-05-03T02:31:13.745Z,101329.94
2023-05-03T02:33:43.759Z,101333.56
2023-05-03T02:36:12.034Z,101331.69
2023-05-03T02:38:39.773Z,101329.09
2023-05-03T02:41:07.966Z,101326.50
2023-05-03T02:43:35.724Z,101335.22
2023-05-03T02:46:03.620Z,101322.06
2023-05-03T02:48:31.623Z,101327.34
2023-05-03T02:50:59.394Z,101332.69
2023-05-03T02:53:27.146Z,101327.41
2023-05-03T02:55:58.664Z,101334.88
2023-05-03T02:58:26.799Z,101329.53
2023-05-03T03:00:54.944Z,101340.88
2023-05-03T03:03:22.904Z,101335.56
2023-05-03T03:05:50.989Z,101344.50
2023-05-03T03:08:19.960Z,101347.22
2023-05-03T03:10:48.513Z,101336.72
2023-05-03T03:13:16.534Z,101348.16
2023-05-03T03:15:44.290Z,101337.66
2023-05-03T03:18:12.314Z,101345.53
2023-05-03T03:20:40.080Z,101338.63
2023-05-03T03:23:07.986Z,101335.06
2023-05-03T03:25:35.816Z,101342.25
2023-05-03T03:28:03.990Z,101355.53
2023-05-03T03:30:32.810Z,101352.94
2023-05-03T03:33:14.094Z,101349.59
2023-05-03T03:35:43.241Z,101329.25
2023-05-03T03:38:12.911Z,101353.09
2023-05-03T03:40:48.951Z,101357.59
2023-05-03T03:43:17.332Z,101327.59
2023-05-03T03:45:45.172Z,101335.59
2023-05-03T03:48:15.382Z,101347.97
2023-05-03T03:50:43.272Z,101345.50
2023-05-03T03:53:13.029Z,101340.41
2023-05-03T03:55:41.564Z,101353.59
2023-05-03T03:58:09.717Z,101350.16
2023-05-03T04:00:38.259Z,101343.16
2023-05-03T04:03:12.629Z,101357.50
2023-05-03T04:05:40.927Z,101345.31
2023-05-03T04:08:09.327Z,101364.88
2023-05-03T04:10:37.898Z,101364.97
2023-05-03T04:13:06.351Z,101353.66
2023-05-03T04:15:34.422Z,101360.78
2023-05-03T04:18:04.194Z,101364.44
2023-05-03T04:20:33.055Z,101359.22
2023-05-03T04:23:02.345Z,101357.53
2023-05-03T04:25:32.127Z,101356.75
2023-05-03T04:28:05.621Z,101349.03
2023-05-03T04:30:35.812Z,101364.97
2023-05-03T04:33:04.606Z,101362.41
2023-05-03T04:35:36.130Z,101351.84
2023-05-03T04:38:09.804Z,101361.56
2023-05-03T04:40:37.832Z,101356.25
2023-05-03T04:43:11.151Z,101363.31
2023-05-03T04:45:42.615Z,101358.94
2023-05-03T04:48:15.373Z,101360.66
2023-05-03T04:50:43.139Z,101362.34
2023-05-03T04:53:12.982Z,101376.44
2023-05-03T04:55:43.771Z,101373.72
2023-05-03T04:58:12.033Z,101379.88
2023-05-03T05:00:42.985Z,101375.41
2023-05-03T05:03:16.898Z,101373.88
2023-05-03T05:05:45.297Z,101383.53
2023-05-03T05:08:13.137Z,101390.50
2023-05-03T05:10:48.582Z,101384.31
2023-05-03T05:13:20.622Z,101379.81
2023-05-03T05:15:48.373Z,101377.97
2023-05-03T05:18:16.271Z,101385.84
2023-05-03T05:20:45.463Z,101387.66
2023-05-03T05:23:13.402Z,101384.91
2023-05-03T05:25:43.897Z,101378.78
2023-05-03T05:28:11.616Z,101378.63
2023-05-03T05:30:41.482Z,101390.06
2023-05-03T05:33:09.679Z,101392.78
2023-05-03T05:35:37.948Z,101394.50
2023-05-03T05:38:06.141Z,101390.88
2023-05-03T05:40:35.003Z,101392.56
2023-05-03T05:43:03.044Z,101393.44
2023-05-03T05:45:34.565Z,101392.50
2023-05-03T05:48:04.628Z,101391.56
2023-05-03T05:50:32.635Z,101394.16
2023-05-03T05:53:04.801Z,101392.34
2023-05-03T05:55:36.862Z,101394.97
2023-05-03T05:58:04.709Z,101386.91
2023-05-03T06:00:39.642Z,101387.81
2023-05-03T06:03:07.591Z,101384.25
2023-05-03T06:05:35.953Z,101385.16
2023-05-03T06:08:04.135Z,101377.03
2023-05-03T06:10:31.866Z,101380.53
2023-05-03T06:12:59.689Z,101375.13
2023-05-03T06:15:29.184Z,101382.00
2023-05-03T06:17:57.341Z,101385.44
2023-05-03T06:20:25.252Z,101365.88
2023-05-03T06:22:56.858Z,101378.88
2023-05-03T06:25:24.686Z,101384.88
2023-05-03T06:27:52.386Z,101379.41
2023-05-03T06:30:27.349Z,101373.94
2023-05-03T06:32:58.937Z,101387.00
2023-05-03T06:35:26.880Z,101384.03
2023-05-03T06:37:55.086Z,101380.22
2023-05-03T06:40:25.504Z,101380.84
2023-05-03T06:42:53.171Z,101384.13
2023-05-03T06:45:32.369Z,101364.38
2023-05-03T06:48:00.292Z,101379.19
2023-05-03T06:50:28.118Z,101359.63
2023-05-03T06:52:55.957Z,101363.78
2023-05-03T06:55:23.714Z,101367.94
2023-05-03T06:57:53.016Z,101358.00
2023-05-03T07:00:26.069Z,101363.81
2023-05-03T07:02:53.889Z,101358.16
2023-05-03T07:05:21.693Z,101361.50
2023-05-03T07:07:49.503Z,101366.50
2023-05-03T07:10:17.197Z,101370.66
2023-05-03T07:12:45.035Z,101366.03
2023-05-03T07:15:12.796Z,101368.56
2023-05-03T07:17:40.684Z,101368.41
2023-05-03T07:20:08.937Z,101366.34
2023-05-03T07:22:36.731Z,101352.81
2023-05-03T07:25:04.862Z,101362.13
2023-05-03T07:27:32.775Z,101346.81
2023-05-03T07:30:01.042Z,101345.69
2023-05-03T07:32:29.291Z,101341.75
2023-05-03T07:34:57.036Z,101337.97
2023-05-03T07:37:25.845Z,101342.03
2023-05-03T07:39:53.800Z,101337.22
2023-05-03T07:42:21.761Z,101331.78
2023-05-03T07:44:49.986Z,101331.34
2023-05-03T07:47:17.983Z,101334.72
2023-05-03T07:49:47.802Z,101333.91
2023-05-03T07:52:15.732Z,101337.22
2023-05-03T07:54:45.665Z,101333.50
2023-05-03T07:57:16.134Z,101326.44
2023-05-03T07:59:43.917Z,101333.13
2023-05-03T08:02:11.734Z,101341.72
2023-05-03T08:04:40.078Z,101326.47
2023-05-03T08:07:08.044Z,101327.09
2023-05-03T08:09:36.459Z,101339.97
2023-05-03T08:12:04.409Z,101341.34
2023-05-03T08:14:33.738Z,101341.03
2023-05-03T08:17:01.472Z,101312.41
2023-05-03T08:19:29.174Z,101337.16
2023-05-03T08:21:56.851Z,101337.72
2023-05-03T08:24:24.730Z,101340.16
2023-05-03T08:26:52.800Z,101331.06
2023-05-03T08:29:21.051Z,101336.13
2023-05-03T08:31:48.977Z,101339.28
2023-05-03T08:34:17.026Z,101336.25
2023-05-03T08:36:44.821Z,101332.31
2023-05-03T08:39:15.213Z,101341.69
2023-05-03T08:41:44.655Z,101338.56
2023-05-03T08:44:20.012Z,101332.22
2023-05-03T08:46:47.803Z,101320.38
2023-05-03T08:49:17.680Z,101326.25
2023-05-03T08:51:47.318Z,101321.63
2023-05-03T08:54:18.188Z,101329.19
2023-05-03T08:56:47.353Z,101332.50
2023-05-03T08:59:17.180Z,101325.09
2023-05-03T09:01:45.319Z,101325.00
2023-05-03T09:04:13.185Z,101312.44
2023-05-03T09:06:41.552Z,101318.38
2023-05-03T09:09:09.753Z,101310.50
2023-05-03T09:11:40.434Z,101318.56
2023-05-03T09:14:09.994Z,101330.03
2023-05-03T09:16:39.314Z,101327.28
2023-05-03T09:19:11.570Z,101324.28
2023-05-03T09:21:47.015Z,101329.53
2023-05-03T09:24:19.204Z,101323.84
2023-05-03T09:26:49.949Z,101326.25
2023-05-03T09:29:36.691Z,101328.53
2023-05-03T09:32:06.471Z,101314.31
2023-05-03T09:34:38.564Z,101308.91
2023-05-03T09:37:06.672Z,101321.03
2023-05-03T09:39:36.816Z,101297.69
2023-05-03T09:42:18.730Z,101309.69
2023-05-03T09:44:51.268Z,101311.28
2023-05-03T09:47:19.142Z,101313.78
2023-05-03T09:49:47.489Z,101317.00
2023-05-03T09:52:15.415Z,101316.69
2023-05-03T09:54:43.797Z,101306.53
2023-05-03T09:57:12.730Z,101310.75
2023-05-03T09:59:40.569Z,101299.69
2023-05-03T10:02:08.772Z,101310.78
2023-05-03T10:04:51.960Z,101314.97
2023-05-03T10:07:21.714Z,101298.91
2023-05-03T10:09:49.659Z,101289.94
2023-05-03T10:12:19.132Z,101290.19
2023-05-03T10:14:49.882Z,101288.94
2023-05-03T10:17:46.238Z,101288.69
2023-05-03T10:20:33.456Z,101279.31
2023-05-03T10:23:12.242Z,101288.75
2023-05-03T10:26:13.291Z,101284.13
2023-05-03T10:28:41.242Z,101271.78
2023-05-03T10:31:48.272Z,101270.06
2023-05-03T10:34:24.940Z,101261.84
2023-05-03T10:36:56.753Z,101264.38
2023-05-03T10:39:27.541Z,101265.75
2023-05-03T10:42:08.188Z,101253.25
2023-05-03T10:44:41.143Z,101247.00
2023-05-03T10:47:17.255Z,101260.03
2023-05-03T10:49:45.911Z,101239.53
2023-05-03T10:52:48.181Z,101245.09
2023-05-03T10:55:22.216Z,101247.63
2023-05-03T10:57:53.807Z,101234.03
2023-05-03T11:00:34.316Z,101238.22
2023-05-03T11:03:28.993Z,101241.81
2023-05-03T11:05:57.492Z,101224.13
2023-05-03T11:08:25.981Z,101246.00
2023-05-03T11:11:00.921Z,101226.78
2023-05-03T11:13:29.226Z,101228.41
2023-05-03T11:15:57.111Z,101239.63
2023-05-03T11:18:30.283Z,101234.69
2023-05-03T11:20:58.261Z,101229.28
2023-05-03T11:23:31.463Z,101227.78
2023-05-03T11:25:59.196Z,101231.34
2023-05-03T11:28:27.054Z,101225.53
2023-05-03T11:30:55.056Z,101218.19
2023-05-03T11:33:22.818Z,101225.03
2023-05-03T11:35:54.820Z,101219.38
2023-05-03T11:38:22.911Z,101219.09
2023-05-03T11:40:50.602Z,101221.72
2023-05-03T11:43:18.392Z,101205.22
2023-05-03T11:45:48.156Z,101210.09
2023-05-03T11:48:16.706Z,101196.34
2023-05-03T11:50:56.372Z,101208.41
2023-05-03T11:53:26.319Z,101200.22
2023-05-03T11:55:55.885Z,101200.81
2023-05-03T11:58:27.462Z,101186.31
2023-05-03T12:00:57.114Z,101195.97
2023-05-03T12:03:36.161Z,101188.47
2023-05-03T12:06:06.571Z,101205.06
2023-05-03T12:08:37.639Z,101186.34
2023-05-03T12:11:07.513Z,101195.13
2023-05-03T12:13:40.472Z,101189.72
2023-05-03T12:16:14.327Z,101180.25
2023-05-03T12:18:58.659Z,101181.16
2023-05-03T12:24:24.570Z,101182.38
2023-05-03T12:26:52.888Z,101184.78
2023-05-03T12:29:22.832Z,101168.59
2023-05-03T12:31:52.712Z,101172.72
2023-05-03T12:34:33.697Z,101170.03
2023-05-03T12:37:05.756Z,101164.72
2023-05-03T12:39:36.746Z,101153.91
2023-05-03T12:42:08.927Z,101153.44
2023-05-03T12:44:42.375Z,101149.19
2023-05-03T12:47:11.392Z,101149.94
2023-05-03T12:49:40.135Z,101142.50
2023-05-03T12:54:41.886Z,101140.50
2023-05-03T12:57:15.526Z,101141.06
2023-05-03T12:59:51.997Z,101135.09
2023-05-03T13:04:58.930Z,101132.75
2023-05-03T13:07:30.501Z,101122.81
2023-05-03T13:12:33.409Z,101124.47
2023-05-03T13:15:04.050Z,101115.38
2023-05-03T13:17:32.637Z,101117.22
2023-05-03T13:20:01.284Z,101108.25
2023-05-03T13:22:29.103Z,101108.91
2023-05-03T13:24:56.887Z,101108.00
2023-05-03T13:27:25.145Z,101097.31
2023-05-03T13:29:52.882Z,101104.06
2023-05-03T13:32:20.719Z,101085.13
2023-05-03T13:34:48.529Z,101097.47
2023-05-03T13:37:18.796Z,101080.28
2023-05-03T13:39:46.861Z,101095.31
2023-05-03T13:42:14.772Z,101091.56
2023-05-03T13:44:44.506Z,101083.44
2023-05-03T13:47:12.236Z,101083.56
2023-05-03T13:49:40.035Z,101077.84
2023-05-03T13:52:07.770Z,101075.31
2023-05-03T13:54:36.961Z,101076.75
2023-05-03T13:57:04.662Z,101055.72
2023-05-03T13:59:32.406Z,101062.78
2023-05-03T14:02:00.794Z,101050.00
2023-05-03T14:04:28.889Z,101057.81
2023-05-03T14:06:56.812Z,101047.66
2023-05-03T14:09:24.653Z,101039.44
2023-05-03T14:11:53.061Z,101057.94
2023-05-03T14:14:22.023Z,101036.41
2023-05-03T14:16:49.792Z,101034.06
2023-05-03T14:19:18.133Z,101038.59
2023-05-03T14:21:49.462Z,101050.84
2023-05-03T14:24:17.283Z,101034.81
2023-05-03T14:26:45.221Z,101040.53
2023-05-03T14:29:12.982Z,101031.13
2023-05-03T14:31:40.891Z,101033.63
2023-05-03T14:34:08.948Z,101025.50
2023-05-03T14:36:38.638Z,101033.44
2023-05-03T14:39:06.841Z,101029.75
2023-05-03T14:41:34.955Z,101018.47
2023-05-03T14:44:02.790Z,101022.59
2023-05-03T14:46:41.923Z,101025.00
2023-05-03T14:49:09.681Z,101025.06
2023-05-03T14:51:37.489Z,101026.72
2023-05-03T14:54:05.536Z,101023.22
2023-05-03T14:56:33.371Z,101027.69
2023-05-03T14:59:01.715Z,101034.72
2023-05-03T15:01:29.573Z,101032.69
2023-05-03T15:03:57.231Z,101034.31
2023-05-03T15:06:31.999Z,101024.28
2023-05-03T15:08:59.815Z,101035.19
2023-05-03T15:11:27.718Z,101024.28
2023-05-03T15:13:55.436Z,101028.59
2023-05-03T15:16:23.872Z,101017.75
2023-05-03T15:18:51.811Z,101025.88
2023-05-03T15:21:20.202Z,101026.41
2023-05-03T15:23:51.750Z,101030.31
2023-05-03T15:26:19.783Z,101017.75
2023-05-03T15:28:47.514Z,101019.72
2023-05-03T15:31:16.133Z,101022.31
2023-05-03T15:33:44.884Z,101021.44
2023-05-03T15:36:13.915Z,101020.25
2023-05-03T15:38:41.689Z,101015.72
2023-05-03T15:41:09.637Z,101010.19
2023-05-03T15:43:37.749Z,101011.16
2023-05-03T15:46:05.783Z,100998.72
2023-05-03T15:48:33.528Z,101001.06
2023-05-03T15:51:01.480Z,101005.31
2023-05-03T15:53:29.247Z,100990.16
2023-05-03T15:55:58.129Z,100993.53
2023-05-03T15:58:30.289Z,100978.16
2023-05-03T16:00:59.310Z,100983.44
2023-05-03T16:03:28.643Z,100989.59
2023-05-03T16:05:57.157Z,100988.00
2023-05-03T16:08:25.230Z,100996.25
2023-05-03T16:10:53.066Z,100987.53
2023-05-03T16:13:20.898Z,100987.66
2023-05-03T16:15:52.233Z,100998.16
2023-05-03T16:18:20.044Z,100982.44
2023-05-03T16:20:49.370Z,100978.16
2023-05-03T16:23:17.584Z,100981.38
2023-05-03T16:25:45.408Z,100981.19
2023-05-03T16:28:13.456Z,100971.31
2023-05-03T16:30:41.177Z,100973.69
2023-05-03T16:33:09.156Z,100971.97
2023-05-03T16:35:36.902Z,100962.44
2023-05-03T16:38:04.584Z,100964.09
2023-05-03T16:40:32.288Z,100971.31
2023-05-03T16:43:00.049Z,100965.03
2023-05-03T16:45:28.392Z,100965.91
2023-05-03T16:47:56.931Z,100961.56
2023-05-03T16:50:24.714Z,100944.69
2023-05-03T16:52:52.850Z,100954.44
2023-05-03T16:55:23.684Z,100940.13
2023-05-03T16:57:51.535Z,100947.31
2023-05-03T17:00:20.887Z,100962.56
2023-05-03T17:02:49.092Z,100951.09
2023-05-03T17:05:17.574Z,100953.66
2023-05-03T17:07:46.023Z,100945.78
2023-05-03T17:10:13.889Z,100959.19
2023-05-03T17:12:41.900Z,100956.03
2023-05-03T17:15:10.455Z,100950.63
2023-05-03T17:17:38.315Z,100954.53
2023-05-03T17:20:07.764Z,100952.81
2023-05-03T17:22:36.092Z,100953.97
2023-05-03T17:25:04.040Z,100956.56
2023-05-03T17:27:32.159Z,100959.50
2023-05-03T17:30:00.092Z,100958.84
2023-05-03T17:32:27.830Z,100960.78
2023-05-03T17:35:08.833Z,100959.06
2023-05-03T17:37:37.514Z,100962.31
2023-05-03T17:40:07.707Z,100952.34
2023-05-03T17:42:35.836Z,100963.38
2023-05-03T17:45:04.886Z,100962.41
2023-05-03T17:47:32.685Z,100958.16
2023-05-03T17:50:00.502Z,100965.44
2023-05-03T17:52:28.363Z,100960.25
2023-05-03T17:54:57.139Z,100969.22
2023-05-03T17:57:25.018Z,100965.09
2023-05-03T17:59:52.786Z,100967.91
2023-05-03T18:02:21.547Z,100964.56
2023-05-03T18:04:49.276Z,100961.19
2023-05-03T18:07:17.105Z,100962.38
2023-05-03T18:09:44.837Z,100966.16
2023-05-03T18:12:14.241Z,100951.19
2023-05-03T18:14:42.127Z,100969.50
2023-05-03T18:17:09.954Z,100957.16
2023-05-03T18:19:37.717Z,100970.78
2023-05-03T18:22:06.296Z,100966.59
2023-05-03T18:24:34.176Z,100967.69
2023-05-03T18:27:02.506Z,100979.47
2023-05-03T18:29:30.252Z,100972.53
2023-05-03T18:31:58.358Z,100963.97
2023-05-03T18:34:29.647Z,100969.47
2023-05-03T18:36:57.561Z,100974.63
2023-05-03T18:39:25.353Z,100963.25
2023-05-03T18:41:53.186Z,100972.34
2023-05-03T18:44:23.977Z,100973.59
2023-05-03T18:46:52.717Z,100970.47
2023-05-03T18:49:21.914Z,100972.59
2023-05-03T18:51:49.814Z,100976.53
2023-05-03T18:54:17.883Z,100973.25
2023-05-03T18:56:45.721Z,100985.16
2023-05-03T18:59:13.483Z,100979.47
2023-05-03T19:01:41.343Z,100981.31
2023-05-03T19:04:09.135Z,100977.81
2023-05-03T19:06:36.967Z,100986.09
2023-05-03T19:09:04.726Z,100989.84
2023-05-03T19:11:32.588Z,100990.06
2023-05-03T19:14:01.050Z,100988.53
2023-05-03T19:16:28.839Z,100986.28
2023-05-03T19:18:56.723Z,100995.38
2023-05-03T19:21:24.825Z,100994.78
2023-05-03T19:23:52.577Z,100996.91
2023-05-03T19:26:20.485Z,101000.88
2023-05-03T19:28:48.304Z,101002.13
2023-05-03T19:31:17.742Z,101000.75
2023-05-03T19:33:45.542Z,101002.75
2023-05-03T19:36:14.833Z,100994.00
2023-05-03T19:38:42.777Z,101003.13
2023-05-03T19:41:12.712Z,101005.19
2023-05-03T19:43:42.091Z,100996.47
2023-05-03T19:46:10.580Z,101003.78
2023-05-03T19:48:38.421Z,100996.94
2023-05-03T19:51:06.282Z,100995.41
2023-05-03T19:53:34.035Z,101002.75
2023-05-03T19:56:07.123Z,100999.47
2023-05-03T19:58:35.413Z,100999.00
2023-05-03T20:01:03.230Z,100998.28
2023-05-03T20:03:31.303Z,101007.44
2023-05-03T20:05:59.358Z,101002.31
2023-05-03T20:08:27.366Z,101010.59
2023-05-03T20:10:55.644Z,101005.66
2023-05-03T20:13:25.823Z,101004.97
2023-05-03T20:15:53.900Z,101008.88
2023-05-03T20:18:22.043Z,101005.59
2023-05-03T20:20:49.761Z,101011.25
2023-05-03T20:23:17.767Z,101007.00
2023-05-03T20:25:45.508Z,101011.69
2023-05-03T20:28:13.339Z,100997.59
2023-05-03T20:30:41.532Z,101003.25
2023-05-03T20:33:10.131Z,101011.34
2023-05-03T20:35:38.257Z,101004.31
2023-05-03T20:38:06.074Z,100996.50
2023-05-03T20:40:34.496Z,100993.00
2023-05-03T20:43:02.330Z,100994.03
2023-05-03T20:45:30.239Z,101003.00
2023-05-03T20:47:58.078Z,101000.53
2023-05-03T20:50:25.858Z,101000.69
2023-05-03T20:52:55.345Z,100987.25
2023-05-03T20:55:23.330Z,100992.81
2023-05-03T20:57:51.066Z,100996.47
2023-05-03T21:00:21.013Z,100993.94
2023-05-03T21:02:54.268Z,100995.06
2023-05-03T21:05:22.266Z,100989.94
2023-05-03T21:07:50.045Z,100994.72
2023-05-03T21:10:17.838Z,100997.59
2023-05-03T21:12:45.929Z,101002.28
2023-05-03T21:15:13.752Z,100994.53
2023-05-03T21:17:41.506Z,100996.44
2023-05-03T21:20:10.761Z,101000.94
2023-05-03T21:22:38.494Z,100992.16
2023-05-03T21:25:07.219Z,101002.16
2023-05-03T21:27:34.980Z,100986.34
2023-05-03T21:30:03.187Z,100989.09
2023-05-03T21:32:31.211Z,100975.03
2023-05-03T21:34:59.067Z,100987.47
2023-05-03T21:37:26.775Z,100983.22
2023-05-03T21:40:01.395Z,100978.25
2023-05-03T21:42:30.632Z,100987.44
2023-05-03T21:44:58.977Z,100978.56
2023-05-03T21:47:28.017Z,100978.75
2023-05-03T21:49:55.776Z,100977.28
2023-05-03T21:52:23.858Z,100973.84
2023-05-03T21:54:53.126Z,100970.44
2023-05-03T21:57:20.949Z,100965.47
2023-05-03T21:59:49.471Z,100965.28
2023-05-03T22:02:17.565Z,100964.66
2023-05-03T22:04:47.246Z,100961.03
2023-05-03T22:07:16.472Z,100960.25
2023-05-03T22:09:48.684Z,100958.53
2023-05-03T22:14:47.778Z,100959.88
2023-05-03T22:17:15.559Z,100960.34
2023-05-03T22:19:43.566Z,100957.56
2023-05-03T22:22:11.466Z,100960.19
2023-05-03T22:24:39.310Z,100962.03
2023-05-03T22:27:07.098Z,100950.66
2023-05-03T22:29:35.080Z,100956.03
2023-05-03T22:32:03.070Z,100954.25
2023-05-03T22:34:30.982Z,100947.25
2023-05-03T22:36:58.683Z,100944.69
2023-05-03T22:39:26.785Z,100949.31
2023-05-03T22:41:54.505Z,100949.31
2023-05-03T22:44:22.257Z,100952.94
2023-05-03T22:46:49.941Z,100953.88
2023-05-03T22:49:17.863Z,100952.03
2023-05-03T22:51:46.046Z,100944.06
2023-05-03T22:54:13.867Z,100952.22
2023-05-03T22:56:41.634Z,100938.88
2023-05-03T22:59:09.419Z,100956.72
2023-05-03T23:01:37.546Z,100946.94
2023-05-03T23:04:05.579Z,100950.56
2023-05-03T23:06:33.363Z,100942.72
2023-05-03T23:09:01.196Z,100940.13
2023-05-03T23:11:28.965Z,100949.00
2023-05-03T23:13:57.023Z,100955.47
2023-05-03T23:16:24.915Z,100956.38
2023-05-03T23:18:54.232Z,100945.00
2023-05-03T23:21:23.714Z,100940.78
2023-05-03T23:23:51.630Z,100947.16
2023-05-03T23:26:20.064Z,100947.28
2023-05-03T23:28:48.663Z,100947.38
2023-05-03T23:31:16.879Z,100940.44
2023-05-03T23:33:45.044Z,100938.69
2023-05-03T23:36:13.083Z,100946.03
2023-05-03T23:38:40.834Z,100937.19
2023-05-03T23:41:08.851Z,100934.63
2023-05-03T23:43:36.637Z,100940.16
2023-05-03T23:46:04.471Z,100933.13
2023-05-03T23:48:32.780Z,100927.91
2023-05-03T23:51:00.696Z,100926.25
2023-05-03T23:53:28.363Z,100928.06
2023-05-03T23:55:56.440Z,100928.94
2023-05-03T23:58:24.172Z,100921.00
